createdAt,value
2019-04-30T00:00:18.300Z,0.00
2019-04-30T00:01:18.813Z,0.00
2019-04-30T00:02:16.329Z,0.00
2019-04-30T00:03:19.603Z,0.00
2019-04-30T00:04:16.339Z,0.00
2019-04-30T00:05:18.814Z,0.00
2019-04-30T00:06:16.273Z,0.00
2019-04-30T00:07:19.064Z,0.00
2019-04-30T00:08:16.247Z,0.00
2019-04-30T00:09:18.987Z,0.00
2019-04-30T00:10:16.244Z,0.00
2019-04-30T00:11:19.474Z,0.00
2019-04-30T00:12:16.204Z,0.00
2019-04-30T00:13:20.677Z,0.00
2019-04-30T00:14:16.185Z,0.00
2019-04-30T00:15:19.533Z,0.00
2019-04-30T00:16:16.185Z,0.00
2019-04-30T00:17:19.612Z,0.00
2019-04-30T00:18:16.137Z,0.00
2019-04-30T00:19:19.625Z,0.00
2019-04-30T00:20:17.651Z,0.00
2019-04-30T00:21:18.705Z,0.00
2019-04-30T00:22:16.130Z,0.00
2019-04-30T00:23:17.959Z,0.00
2019-04-30T00:24:16.065Z,0.00
2019-04-30T00:25:19.637Z,0.00
2019-04-30T00:26:17.360Z,0.00
2019-04-30T00:27:16.036Z,0.00
2019-04-30T00:28:16.040Z,0.00
2019-04-30T00:29:19.100Z,0.00
2019-04-30T00:30:16.998Z,0.00
2019-04-30T00:31:17.338Z,0.00
2019-04-30T00:32:16.979Z,0.00
2019-04-30T00:33:22.045Z,0.00
2019-04-30T00:34:16.981Z,0.00
2019-04-30T00:35:19.518Z,0.00
2019-04-30T00:36:17.321Z,0.00
2019-04-30T00:37:18.810Z,0.00
2019-04-30T00:38:15.904Z,0.00
2019-04-30T00:39:16.729Z,0.00
2019-04-30T00:40:15.885Z,0.00
2019-04-30T00:41:15.878Z,0.00
2019-04-30T00:42:17.241Z,0.00
2019-04-30T00:43:17.141Z,0.00
2019-04-30T00:44:19.889Z,0.00
2019-04-30T00:45:16.859Z,0.00
2019-04-30T00:46:17.414Z,0.00
2019-04-30T00:47:16.803Z,0.00
2019-04-30T00:48:19.349Z,0.00
2019-04-30T00:49:22.846Z,0.00
2019-04-30T00:50:16.792Z,0.00
2019-04-30T00:51:21.116Z,0.00
2019-04-30T00:52:16.756Z,0.00
2019-04-30T00:53:16.614Z,0.00
2019-04-30T00:54:17.666Z,0.00
2019-04-30T00:55:15.733Z,0.00
2019-04-30T00:56:19.900Z,0.00
2019-04-30T00:57:16.699Z,0.00
2019-04-30T00:58:17.693Z,0.00
2019-04-30T00:59:15.674Z,0.00
2019-04-30T01:00:17.798Z,0.00
2019-04-30T01:01:16.654Z,0.00
2019-04-30T01:02:20.201Z,0.00
2019-04-30T01:03:16.625Z,0.00
2019-04-30T01:04:19.381Z,0.00
2019-04-30T01:05:16.643Z,0.00
2019-04-30T01:06:17.283Z,0.00
2019-04-30T01:07:16.591Z,0.00
2019-04-30T01:08:15.606Z,0.00
2019-04-30T01:09:15.666Z,0.00
2019-04-30T01:10:19.581Z,0.00
2019-04-30T01:11:16.550Z,0.00
2019-04-30T01:12:17.350Z,0.00
2019-04-30T01:13:16.525Z,0.00
2019-04-30T01:14:15.506Z,0.00
2019-04-30T01:15:15.522Z,0.00
2019-04-30T01:16:15.508Z,0.00
2019-04-30T01:17:15.473Z,0.00
2019-04-30T01:18:15.463Z,0.00
2019-04-30T01:19:27.526Z,0.00
2019-04-30T01:20:16.447Z,0.00
2019-04-30T01:21:15.495Z,0.00
2019-04-30T01:22:21.579Z,0.00
2019-04-30T01:23:16.401Z,0.00
2019-04-30T01:24:15.394Z,0.00
2019-04-30T01:25:15.383Z,0.00
2019-04-30T01:26:15.389Z,0.00
2019-04-30T01:27:15.418Z,0.00
2019-04-30T01:28:16.380Z,0.00
2019-04-30T01:29:15.337Z,0.00
2019-04-30T01:30:18.711Z,0.00
2019-04-30T01:31:16.321Z,0.00
2019-04-30T01:32:17.375Z,0.00
2019-04-30T01:33:16.351Z,0.00
2019-04-30T01:34:15.285Z,0.00
2019-04-30T01:35:15.269Z,0.00
2019-04-30T01:36:15.256Z,0.00
2019-04-30T01:37:15.247Z,0.00
2019-04-30T01:38:15.242Z,0.00
2019-04-30T01:39:15.278Z,0.00
2019-04-30T01:40:15.221Z,0.00
2019-04-30T01:41:15.209Z,0.00
2019-04-30T01:42:15.186Z,0.00
2019-04-30T01:43:15.204Z,0.00
2019-04-30T01:44:15.177Z,0.00
2019-04-30T01:45:15.191Z,0.00
2019-04-30T01:46:15.149Z,0.00
2019-04-30T01:47:15.168Z,0.00
2019-04-30T01:48:15.152Z,0.00
2019-04-30T01:49:15.163Z,0.00
2019-04-30T01:50:15.113Z,0.00
2019-04-30T01:51:20.455Z,0.00
2019-04-30T01:52:15.082Z,0.00
2019-04-30T01:53:15.072Z,0.00
2019-04-30T01:54:21.154Z,0.00
2019-04-30T01:55:16.099Z,0.00
2019-04-30T01:56:15.025Z,0.00
2019-04-30T01:57:15.044Z,0.00
2019-04-30T01:58:15.043Z,0.00
2019-04-30T01:59:15.025Z,0.00
2019-04-30T02:00:14.988Z,0.00
2019-04-30T02:01:15.021Z,0.00
2019-04-30T02:02:14.969Z,0.00
2019-04-30T02:03:14.963Z,0.00
2019-04-30T02:04:14.950Z,0.00
2019-04-30T02:05:14.940Z,0.00
2019-04-30T02:06:14.953Z,0.00
2019-04-30T02:07:14.924Z,0.00
2019-04-30T02:08:14.924Z,0.00
2019-04-30T02:09:14.890Z,0.00
2019-04-30T02:10:14.880Z,0.00
2019-04-30T02:11:14.896Z,0.00
2019-04-30T02:12:14.883Z,0.00
2019-04-30T02:13:14.848Z,0.00
2019-04-30T02:14:14.847Z,0.00
2019-04-30T02:15:14.830Z,0.00
2019-04-30T02:16:14.859Z,0.00
2019-04-30T02:17:14.834Z,0.00
2019-04-30T02:18:14.790Z,0.00
2019-04-30T02:19:14.781Z,0.00
2019-04-30T02:20:14.771Z,0.00
2019-04-30T02:21:14.766Z,0.00
2019-04-30T02:22:14.753Z,0.00
2019-04-30T02:23:14.846Z,0.00
2019-04-30T02:24:14.729Z,0.00
2019-04-30T02:25:14.758Z,0.00
2019-04-30T02:26:14.734Z,0.00
2019-04-30T02:27:14.692Z,0.00
2019-04-30T02:28:14.676Z,0.00
2019-04-30T02:29:14.685Z,0.00
2019-04-30T02:30:14.691Z,0.00
2019-04-30T02:31:14.653Z,0.00
2019-04-30T02:32:14.637Z,0.00
2019-04-30T02:33:14.621Z,0.00
2019-04-30T02:34:14.648Z,0.00
2019-04-30T02:35:14.595Z,0.00
2019-04-30T02:36:14.642Z,0.00
2019-04-30T02:37:14.579Z,0.00
2019-04-30T02:38:14.570Z,0.00
2019-04-30T02:39:14.569Z,0.00
2019-04-30T02:40:14.596Z,0.00
2019-04-30T02:41:14.532Z,0.00
2019-04-30T02:42:14.539Z,0.00
2019-04-30T02:43:14.509Z,0.00
2019-04-30T02:44:14.496Z,0.00
2019-04-30T02:45:14.489Z,0.00
2019-04-30T02:46:14.504Z,0.00
2019-04-30T02:47:14.476Z,0.00
2019-04-30T02:48:14.493Z,0.00
2019-04-30T02:49:14.444Z,0.00
2019-04-30T02:50:18.744Z,0.00
2019-04-30T02:51:15.501Z,0.00
2019-04-30T02:52:14.434Z,0.00
2019-04-30T02:53:14.420Z,0.00
2019-04-30T02:54:14.394Z,0.00
2019-04-30T02:55:14.385Z,0.00
2019-04-30T02:56:14.398Z,0.00
2019-04-30T02:57:14.382Z,0.00
2019-04-30T02:58:14.381Z,0.00
2019-04-30T02:59:14.340Z,0.00
2019-04-30T03:00:14.326Z,0.00
2019-04-30T03:01:14.365Z,0.00
2019-04-30T03:02:14.339Z,0.00
2019-04-30T03:03:14.293Z,0.00
2019-04-30T03:04:14.277Z,0.00
2019-04-30T03:05:14.297Z,0.00
2019-04-30T03:06:14.292Z,0.00
2019-04-30T03:07:14.244Z,0.00
2019-04-30T03:08:14.271Z,0.00
2019-04-30T03:09:14.219Z,0.00
2019-04-30T03:10:14.231Z,0.00
2019-04-30T03:11:14.200Z,0.00
2019-04-30T03:12:14.189Z,0.00
2019-04-30T03:13:14.220Z,0.00
2019-04-30T03:14:14.179Z,0.00
2019-04-30T03:15:14.149Z,4.00
2019-04-30T03:16:14.142Z,4.00
2019-04-30T03:17:14.126Z,0.00
2019-04-30T03:18:14.121Z,4.00
2019-04-30T03:19:14.177Z,4.00
2019-04-30T03:20:27.685Z,4.00
2019-04-30T03:21:15.086Z,4.00
2019-04-30T03:22:14.084Z,4.00
2019-04-30T03:23:14.055Z,4.00
2019-04-30T03:24:14.071Z,8.00
2019-04-30T03:25:14.081Z,8.00
2019-04-30T03:26:14.062Z,8.00
2019-04-30T03:27:14.025Z,12.00
2019-04-30T03:28:14.014Z,12.00
2019-04-30T03:29:14.034Z,12.00
2019-04-30T03:30:14.095Z,16.00
2019-04-30T03:31:13.981Z,16.00
2019-04-30T03:32:14.516Z,20.00
2019-04-30T03:33:13.954Z,20.00
2019-04-30T03:34:24.106Z,24.00
2019-04-30T03:35:15.107Z,28.00
2019-04-30T03:36:13.912Z,32.00
2019-04-30T03:37:13.917Z,36.00
2019-04-30T03:38:13.890Z,40.00
2019-04-30T03:39:13.886Z,44.00
2019-04-30T03:40:13.949Z,48.00
2019-04-30T03:41:13.860Z,52.00
2019-04-30T03:42:13.848Z,64.00
2019-04-30T03:43:13.857Z,64.00
2019-04-30T03:44:21.549Z,72.00
2019-04-30T03:45:14.852Z,80.00
2019-04-30T03:46:13.845Z,88.00
2019-04-30T03:47:13.797Z,96.00
2019-04-30T03:48:13.790Z,104.00
2019-04-30T03:49:13.759Z,116.00
2019-04-30T03:50:13.875Z,128.00
2019-04-30T03:51:13.770Z,136.00
2019-04-30T03:52:13.776Z,144.00
2019-04-30T03:53:13.734Z,156.00
2019-04-30T03:54:13.706Z,172.00
2019-04-30T03:55:13.725Z,184.00
2019-04-30T03:56:13.699Z,196.00
2019-04-30T03:57:13.700Z,216.00
2019-04-30T03:58:13.671Z,228.00
2019-04-30T03:59:13.675Z,244.00
2019-04-30T04:00:13.684Z,264.00
2019-04-30T04:01:13.636Z,280.00
2019-04-30T04:02:13.658Z,304.00
2019-04-30T04:03:13.611Z,316.00
2019-04-30T04:04:13.613Z,340.00
2019-04-30T04:05:13.701Z,360.00
2019-04-30T04:06:13.615Z,380.00
2019-04-30T04:07:13.588Z,400.00
2019-04-30T04:08:13.561Z,416.00
2019-04-30T04:09:13.553Z,440.00
2019-04-30T04:10:13.529Z,464.00
2019-04-30T04:11:13.576Z,488.00
2019-04-30T04:12:13.515Z,512.00
2019-04-30T04:13:13.518Z,536.00
2019-04-30T04:14:13.578Z,564.00
2019-04-30T04:15:13.480Z,584.00
2019-04-30T04:16:13.483Z,608.00
2019-04-30T04:17:13.454Z,636.00
2019-04-30T04:18:13.480Z,656.00
2019-04-30T04:19:13.451Z,676.00
2019-04-30T04:20:13.426Z,700.00
2019-04-30T04:21:17.023Z,724.00
2019-04-30T04:22:13.472Z,752.00
2019-04-30T04:23:13.378Z,772.00
2019-04-30T04:24:13.408Z,800.00
2019-04-30T04:25:13.530Z,824.00
2019-04-30T04:26:13.348Z,840.00
2019-04-30T04:27:13.348Z,864.00
2019-04-30T04:28:13.334Z,892.00
2019-04-30T04:29:13.316Z,912.00
2019-04-30T04:30:13.319Z,936.00
2019-04-30T04:31:13.351Z,964.00
2019-04-30T04:32:13.279Z,984.00
2019-04-30T04:33:13.278Z,1008.00
2019-04-30T04:34:13.265Z,1036.00
2019-04-30T04:35:13.533Z,1056.00
2019-04-30T04:36:13.244Z,1080.00
2019-04-30T04:37:13.221Z,1104.00
2019-04-30T04:38:13.260Z,1124.00
2019-04-30T04:39:13.201Z,1144.00
2019-04-30T04:40:13.193Z,1164.00
2019-04-30T04:41:13.212Z,1188.00
2019-04-30T04:42:13.176Z,1212.00
2019-04-30T04:43:13.183Z,1236.00
2019-04-30T04:44:13.334Z,1256.00
2019-04-30T04:45:13.150Z,1280.00
2019-04-30T04:46:13.135Z,1304.00
2019-04-30T04:47:15.979Z,1328.00
2019-04-30T04:48:13.171Z,1360.00
2019-04-30T04:49:13.102Z,1384.00
2019-04-30T04:50:13.114Z,1404.00
2019-04-30T04:51:27.758Z,1424.00
2019-04-30T04:52:14.097Z,1436.00
2019-04-30T04:53:13.071Z,1476.00
2019-04-30T04:54:14.022Z,1480.00
2019-04-30T04:55:14.024Z,1500.00
2019-04-30T04:56:13.077Z,1552.00
2019-04-30T04:57:17.979Z,1616.00
2019-04-30T04:58:13.994Z,1624.00
2019-04-30T04:59:13.082Z,1652.00
2019-04-30T05:00:12.977Z,1720.00
2019-04-30T05:01:12.974Z,1704.00
2019-04-30T05:02:12.989Z,1720.00
2019-04-30T05:03:13.990Z,1700.00
2019-04-30T05:04:13.038Z,1752.00
2019-04-30T05:05:13.013Z,1716.00
2019-04-30T05:06:12.922Z,1824.00
2019-04-30T05:07:12.986Z,1812.00
2019-04-30T05:08:12.893Z,1852.00
2019-04-30T05:09:12.955Z,1856.00
2019-04-30T05:10:12.878Z,1972.00
2019-04-30T05:11:13.541Z,2108.00
2019-04-30T05:12:12.893Z,2140.00
2019-04-30T05:13:12.893Z,2176.00
2019-04-30T05:14:12.844Z,2324.00
2019-04-30T05:15:52.082Z,2228.00
2019-04-30T05:16:12.853Z,2268.00
2019-04-30T05:17:12.822Z,2120.00
2019-04-30T05:18:12.790Z,2164.00
2019-04-30T05:19:12.764Z,2244.00
2019-04-30T05:20:12.789Z,2272.00
2019-04-30T05:21:12.826Z,2068.00
2019-04-30T05:22:12.802Z,2344.00
2019-04-30T05:23:12.726Z,2328.00
2019-04-30T05:24:12.713Z,2236.00
2019-04-30T05:25:12.782Z,2468.00
2019-04-30T05:26:12.891Z,2756.00
2019-04-30T05:27:12.698Z,2636.00
2019-04-30T05:28:12.743Z,2640.00
2019-04-30T05:29:12.683Z,2584.00
2019-04-30T05:30:12.702Z,2664.00
2019-04-30T05:31:12.633Z,2752.00
2019-04-30T05:32:12.676Z,2592.00
2019-04-30T05:33:12.624Z,2572.00
2019-04-30T05:34:12.597Z,2500.00
2019-04-30T05:35:12.622Z,2636.00
2019-04-30T05:36:12.643Z,2588.00
2019-04-30T05:37:12.576Z,2696.00
2019-04-30T05:38:12.549Z,2956.00
2019-04-30T05:39:12.563Z,2560.00
2019-04-30T05:40:12.594Z,2988.00
2019-04-30T05:41:12.568Z,2664.00
2019-04-30T05:42:12.533Z,2756.00
2019-04-30T05:43:12.515Z,3000.00
2019-04-30T05:44:12.485Z,2804.00
2019-04-30T05:45:12.628Z,2956.00
2019-04-30T05:46:14.098Z,2668.00
2019-04-30T05:47:12.439Z,2776.00
2019-04-30T05:48:12.430Z,2532.00
2019-04-30T05:49:12.474Z,2768.00
2019-04-30T05:50:12.425Z,3124.00
2019-04-30T05:51:12.439Z,2876.00
2019-04-30T05:52:12.452Z,2624.00
2019-04-30T05:53:12.431Z,2956.00
2019-04-30T05:54:12.371Z,2852.00
2019-04-30T05:55:12.368Z,2720.00
2019-04-30T05:56:12.403Z,2824.00
2019-04-30T05:57:12.419Z,2980.00
2019-04-30T05:58:12.361Z,3012.00
2019-04-30T05:59:12.356Z,2856.00
2019-04-30T06:00:33.420Z,2864.00
2019-04-30T06:01:12.310Z,3220.00
2019-04-30T06:02:12.277Z,3652.00
2019-04-30T06:03:12.263Z,3048.00
2019-04-30T06:04:12.267Z,3016.00
2019-04-30T06:05:12.398Z,2948.00
2019-04-30T06:06:12.292Z,3204.00
2019-04-30T06:07:12.242Z,3012.00
2019-04-30T06:08:12.273Z,3148.00
2019-04-30T06:09:14.790Z,3160.00
2019-04-30T06:10:12.223Z,3568.00
2019-04-30T06:11:12.276Z,3680.00
2019-04-30T06:12:13.048Z,3392.00
2019-04-30T06:13:12.158Z,3060.00
2019-04-30T06:14:12.174Z,3068.00
2019-04-30T06:15:19.390Z,3172.00
2019-04-30T06:16:12.190Z,3176.00
2019-04-30T06:17:12.127Z,3412.00
2019-04-30T06:18:14.044Z,3380.00
2019-04-30T06:19:12.102Z,3468.00
2019-04-30T06:20:18.357Z,3448.00
2019-04-30T06:21:12.140Z,3532.00
2019-04-30T06:22:12.069Z,3776.00
2019-04-30T06:23:12.070Z,3940.00
2019-04-30T06:24:12.062Z,4212.00
2019-04-30T06:25:12.072Z,4676.00
2019-04-30T06:26:13.220Z,6336.00
2019-04-30T06:27:12.022Z,6116.00
2019-04-30T06:28:12.071Z,9876.00
2019-04-30T06:29:13.013Z,53088.00
2019-04-30T06:30:12.209Z,71680.00
2019-04-30T06:31:12.012Z,73824.00
2019-04-30T06:32:12.124Z,67392.00
2019-04-30T06:33:11.983Z,35392.00
2019-04-30T06:34:11.919Z,7544.00
2019-04-30T06:35:11.922Z,5184.00
2019-04-30T06:36:11.996Z,4784.00
2019-04-30T06:37:11.903Z,4624.00
2019-04-30T06:38:11.859Z,5196.00
2019-04-30T06:39:11.868Z,4720.00
2019-04-30T06:40:11.887Z,4616.00
2019-04-30T06:41:11.873Z,4420.00
2019-04-30T06:42:12.973Z,4496.00
2019-04-30T06:43:11.821Z,5444.00
2019-04-30T06:44:11.812Z,4816.00
2019-04-30T06:45:11.792Z,4260.00
2019-04-30T06:46:11.791Z,4088.00
2019-04-30T06:47:11.796Z,3980.00
2019-04-30T06:48:11.767Z,3892.00
2019-04-30T06:49:11.746Z,3916.00
2019-04-30T06:50:11.748Z,4020.00
2019-04-30T06:51:11.718Z,3916.00
2019-04-30T06:52:20.353Z,4560.00
2019-04-30T06:53:11.733Z,4400.00
2019-04-30T06:54:11.691Z,4680.00
2019-04-30T06:55:11.676Z,3724.00
2019-04-30T06:56:11.699Z,4356.00
2019-04-30T06:57:12.087Z,3416.00
2019-04-30T06:58:15.286Z,4148.00
2019-04-30T06:59:11.674Z,4272.00
2019-04-30T07:00:11.615Z,4036.00
2019-04-30T07:01:11.612Z,3868.00
2019-04-30T07:02:11.590Z,3452.00
2019-04-30T07:03:11.639Z,3444.00
2019-04-30T07:04:11.575Z,4440.00
2019-04-30T07:05:12.033Z,4288.00
2019-04-30T07:06:11.553Z,3824.00
2019-04-30T07:07:14.336Z,3744.00
2019-04-30T07:08:12.532Z,4100.00
2019-04-30T07:09:11.535Z,3628.00
2019-04-30T07:10:16.924Z,3520.00
2019-04-30T07:11:12.488Z,4008.00
2019-04-30T07:12:22.856Z,4096.00
2019-04-30T07:13:12.474Z,3932.00
2019-04-30T07:14:11.467Z,3892.00
2019-04-30T07:15:13.668Z,3956.00
2019-04-30T07:16:11.441Z,4476.00
2019-04-30T07:17:11.503Z,4204.00
2019-04-30T07:18:11.428Z,3648.00
2019-04-30T07:19:11.411Z,4144.00
2019-04-30T07:20:11.390Z,4512.00
2019-04-30T07:21:11.419Z,4088.00
2019-04-30T07:22:11.429Z,4268.00
2019-04-30T07:23:11.368Z,4296.00
2019-04-30T07:24:11.347Z,3972.00
2019-04-30T07:25:11.345Z,3788.00
2019-04-30T07:26:13.848Z,3840.00
2019-04-30T07:27:12.364Z,3636.00
2019-04-30T07:28:11.320Z,3924.00
2019-04-30T07:29:11.287Z,3740.00
2019-04-30T07:30:11.326Z,4296.00
2019-04-30T07:31:14.331Z,4744.00
2019-04-30T07:32:11.259Z,4316.00
2019-04-30T07:33:11.356Z,3824.00
2019-04-30T07:34:11.248Z,3612.00
2019-04-30T07:35:11.214Z,3168.00
2019-04-30T07:36:11.216Z,2560.00
2019-04-30T07:37:17.281Z,2804.00
2019-04-30T07:38:12.304Z,3800.00
2019-04-30T07:39:11.173Z,4016.00
2019-04-30T07:40:11.171Z,4232.00
2019-04-30T07:41:11.158Z,4252.00
2019-04-30T07:42:11.151Z,3692.00
2019-04-30T07:43:11.112Z,4092.00
2019-04-30T07:44:29.436Z,3896.00
2019-04-30T07:45:12.102Z,3772.00
2019-04-30T07:46:11.100Z,3852.00
2019-04-30T07:47:11.141Z,4000.00
2019-04-30T07:48:11.064Z,3744.00
2019-04-30T07:49:11.088Z,3428.00
2019-04-30T07:50:11.328Z,3508.00
2019-04-30T07:51:11.548Z,3740.00
2019-04-30T07:52:12.076Z,3420.00
2019-04-30T07:53:12.157Z,3740.00
2019-04-30T07:54:11.011Z,4020.00
2019-04-30T07:55:11.034Z,3840.00
2019-04-30T07:56:24.438Z,3880.00
2019-04-30T07:57:12.018Z,4016.00
2019-04-30T07:58:10.955Z,3712.00
2019-04-30T07:59:11.206Z,3280.00
2019-04-30T08:00:10.996Z,3264.00
2019-04-30T08:01:10.928Z,3332.00
2019-04-30T08:02:14.679Z,3820.00
2019-04-30T08:03:11.384Z,3804.00
2019-04-30T08:04:10.893Z,3364.00
2019-04-30T08:05:10.889Z,3596.00
2019-04-30T08:06:11.596Z,4044.00
2019-04-30T08:07:10.912Z,4148.00
2019-04-30T08:08:21.263Z,3644.00
2019-04-30T08:09:11.833Z,3800.00
2019-04-30T08:10:11.403Z,3776.00
2019-04-30T08:11:23.027Z,3736.00
2019-04-30T08:12:21.119Z,3908.00
2019-04-30T08:13:14.868Z,3784.00
2019-04-30T08:14:10.858Z,4556.00
2019-04-30T08:15:10.782Z,4344.00
2019-04-30T08:16:10.771Z,3484.00
2019-04-30T08:17:10.785Z,3384.00
2019-04-30T08:18:10.787Z,2928.00
2019-04-30T08:19:10.730Z,3196.00
2019-04-30T08:20:10.713Z,3476.00
2019-04-30T08:21:10.716Z,4388.00
2019-04-30T08:22:10.733Z,4068.00
2019-04-30T08:23:20.280Z,3596.00
2019-04-30T08:24:11.662Z,3864.00
2019-04-30T08:25:10.660Z,4136.00
2019-04-30T08:26:10.662Z,3628.00
2019-04-30T08:27:10.642Z,3740.00
2019-04-30T08:28:10.730Z,3376.00
2019-04-30T08:29:10.632Z,3396.00
2019-04-30T08:30:21.258Z,3580.00
2019-04-30T08:31:11.640Z,3492.00
2019-04-30T08:32:10.579Z,3440.00
2019-04-30T08:33:10.577Z,3032.00
2019-04-30T08:34:11.021Z,3176.00
2019-04-30T08:35:10.629Z,3660.00
2019-04-30T08:36:10.537Z,3836.00
2019-04-30T08:37:17.086Z,4472.00
2019-04-30T08:38:10.892Z,4060.00
2019-04-30T08:39:10.565Z,3596.00
2019-04-30T08:40:10.512Z,3612.00
2019-04-30T08:41:10.499Z,3632.00
2019-04-30T08:42:10.476Z,3316.00
2019-04-30T08:43:10.462Z,3444.00
2019-04-30T08:44:10.493Z,3436.00
2019-04-30T08:45:10.482Z,3508.00
2019-04-30T08:46:10.475Z,3360.00
2019-04-30T08:47:10.446Z,3444.00
2019-04-30T08:48:10.414Z,3384.00
2019-04-30T08:49:10.405Z,3400.00
2019-04-30T08:50:10.811Z,2884.00
2019-04-30T08:51:13.386Z,2876.00
2019-04-30T08:52:10.887Z,2572.00
2019-04-30T08:53:11.193Z,2724.00
2019-04-30T08:54:12.543Z,3264.00
2019-04-30T08:55:15.615Z,3584.00
2019-04-30T08:56:11.363Z,3896.00
2019-04-30T08:57:10.310Z,4248.00
2019-04-30T08:58:14.887Z,3300.00
2019-04-30T08:59:11.412Z,3056.00
2019-04-30T09:00:11.850Z,3344.00
2019-04-30T09:01:10.351Z,4260.00
2019-04-30T09:02:15.900Z,3980.00
2019-04-30T09:03:11.326Z,3732.00
2019-04-30T09:04:10.542Z,3680.00
2019-04-30T09:05:10.233Z,4068.00
2019-04-30T09:06:10.236Z,3832.00
2019-04-30T09:07:10.283Z,3844.00
2019-04-30T09:08:10.194Z,3732.00
2019-04-30T09:09:11.039Z,3560.00
2019-04-30T09:10:10.201Z,3120.00
2019-04-30T09:11:22.118Z,3116.00
2019-04-30T09:12:11.188Z,3304.00
2019-04-30T09:13:10.208Z,3740.00
2019-04-30T09:14:10.158Z,2976.00
2019-04-30T09:15:10.130Z,2552.00
2019-04-30T09:16:10.108Z,2620.00
2019-04-30T09:17:10.071Z,2876.00
2019-04-30T09:18:12.639Z,2920.00
2019-04-30T09:19:10.103Z,3600.00
2019-04-30T09:20:10.060Z,3740.00
2019-04-30T09:21:10.066Z,3836.00
2019-04-30T09:22:14.877Z,3632.00
2019-04-30T09:23:11.267Z,2528.00
2019-04-30T09:24:10.112Z,2304.00
2019-04-30T09:25:10.000Z,3124.00
2019-04-30T09:26:09.990Z,3076.00
2019-04-30T09:27:10.766Z,3212.00
2019-04-30T09:28:09.964Z,2332.00
2019-04-30T09:29:09.948Z,2908.00
2019-04-30T09:30:10.357Z,2884.00
2019-04-30T09:31:09.968Z,2928.00
2019-04-30T09:32:09.947Z,3148.00
2019-04-30T09:33:11.134Z,3268.00
2019-04-30T09:34:17.157Z,3372.00
2019-04-30T09:35:10.995Z,3104.00
2019-04-30T09:36:09.877Z,2380.00
2019-04-30T09:37:09.876Z,2160.00
2019-04-30T09:38:09.865Z,2768.00
2019-04-30T09:39:09.847Z,2324.00
2019-04-30T09:40:17.904Z,2356.00
2019-04-30T09:41:10.863Z,2508.00
2019-04-30T09:42:09.805Z,2592.00
2019-04-30T09:43:09.782Z,2756.00
2019-04-30T09:44:10.070Z,2832.00
2019-04-30T09:45:25.996Z,2680.00
2019-04-30T09:46:19.226Z,2668.00
2019-04-30T09:47:10.746Z,2572.00
2019-04-30T09:48:09.757Z,2560.00
2019-04-30T09:49:09.758Z,2532.00
2019-04-30T09:50:09.707Z,2584.00
2019-04-30T09:51:10.765Z,2652.00
2019-04-30T09:52:10.009Z,2640.00
2019-04-30T09:53:10.424Z,2452.00
2019-04-30T09:54:12.275Z,2760.00
2019-04-30T09:55:10.052Z,2668.00
2019-04-30T09:56:09.730Z,2724.00
2019-04-30T09:57:11.422Z,2916.00
2019-04-30T09:58:16.869Z,2952.00
2019-04-30T09:59:09.614Z,1976.00
2019-04-30T10:00:09.655Z,2052.00
2019-04-30T10:01:09.626Z,2668.00
2019-04-30T10:02:09.576Z,2656.00
2019-04-30T10:03:10.808Z,2792.00
2019-04-30T10:04:10.924Z,2852.00
2019-04-30T10:05:09.995Z,2820.00
2019-04-30T10:06:09.524Z,2736.00
2019-04-30T10:07:09.666Z,2684.00
2019-04-30T10:08:09.523Z,2660.00
2019-04-30T10:09:09.756Z,2792.00
2019-04-30T10:10:11.439Z,2844.00
2019-04-30T10:11:09.777Z,2788.00
2019-04-30T10:12:09.775Z,2700.00
2019-04-30T10:13:09.452Z,2588.00
2019-04-30T10:14:09.476Z,2516.00
2019-04-30T10:15:09.463Z,2504.00
2019-04-30T10:16:09.794Z,2592.00
2019-04-30T10:17:09.602Z,2620.00
2019-04-30T10:18:09.384Z,2568.00
2019-04-30T10:19:10.267Z,2612.00
2019-04-30T10:20:09.391Z,2628.00
2019-04-30T10:21:09.351Z,2628.00
2019-04-30T10:22:09.358Z,2644.00
2019-04-30T10:23:09.565Z,2632.00
2019-04-30T10:24:15.341Z,2652.00
2019-04-30T10:25:11.023Z,2712.00
2019-04-30T10:26:09.307Z,2636.00
2019-04-30T10:27:13.030Z,2512.00
2019-04-30T10:28:10.005Z,2148.00
2019-04-30T10:29:09.260Z,2324.00
2019-04-30T10:30:09.440Z,2748.00
2019-04-30T10:31:09.265Z,2740.00
2019-04-30T10:32:09.232Z,2764.00
2019-04-30T10:33:10.061Z,2760.00
2019-04-30T10:34:09.660Z,2716.00
2019-04-30T10:35:09.214Z,2644.00
2019-04-30T10:36:09.418Z,2712.00
2019-04-30T10:37:09.194Z,2684.00
2019-04-30T10:38:09.880Z,2664.00
2019-04-30T10:39:09.150Z,2644.00
2019-04-30T10:40:10.325Z,2664.00
2019-04-30T10:41:09.160Z,2668.00
2019-04-30T10:42:09.128Z,2672.00
2019-04-30T10:43:09.210Z,2680.00
2019-04-30T10:44:09.088Z,2700.00
2019-04-30T10:45:10.030Z,2724.00
2019-04-30T10:46:09.730Z,2732.00
2019-04-30T10:47:09.402Z,2748.00
2019-04-30T10:48:09.136Z,2780.00
2019-04-30T10:49:09.220Z,2804.00
2019-04-30T10:50:09.884Z,2804.00
2019-04-30T10:51:09.144Z,2808.00
2019-04-30T10:52:09.391Z,2828.00
2019-04-30T10:53:09.268Z,2804.00
2019-04-30T10:54:09.017Z,2804.00
2019-04-30T10:55:09.336Z,2812.00
2019-04-30T10:56:09.739Z,2856.00
2019-04-30T10:57:08.953Z,2844.00
2019-04-30T10:58:08.938Z,2876.00
2019-04-30T10:59:08.933Z,2884.00
2019-04-30T11:00:10.141Z,2900.00
2019-04-30T11:01:09.577Z,2896.00
2019-04-30T11:02:09.118Z,2888.00
2019-04-30T11:03:19.537Z,2888.00
2019-04-30T11:04:09.855Z,2904.00
2019-04-30T11:05:08.895Z,2944.00
2019-04-30T11:06:08.895Z,2960.00
2019-04-30T11:07:08.850Z,2984.00
2019-04-30T11:08:08.834Z,2996.00
2019-04-30T11:09:08.823Z,2992.00
2019-04-30T11:10:08.808Z,3020.00
2019-04-30T11:11:08.881Z,3044.00
2019-04-30T11:12:09.490Z,3056.00
2019-04-30T11:13:08.780Z,3064.00
2019-04-30T11:14:08.767Z,3076.00
2019-04-30T11:15:08.751Z,3084.00
2019-04-30T11:16:13.269Z,3080.00
2019-04-30T11:17:10.097Z,3056.00
2019-04-30T11:18:08.944Z,3048.00
2019-04-30T11:19:09.373Z,3096.00
2019-04-30T11:20:10.294Z,3152.00
2019-04-30T11:21:09.754Z,3248.00
2019-04-30T11:22:08.890Z,3204.00
2019-04-30T11:23:14.600Z,3124.00
2019-04-30T11:24:09.801Z,3156.00
2019-04-30T11:25:10.010Z,3196.00
2019-04-30T11:26:09.071Z,3260.00
2019-04-30T11:27:11.237Z,3212.00
2019-04-30T11:28:09.257Z,3176.00
2019-04-30T11:29:08.675Z,3200.00
2019-04-30T11:30:20.355Z,3248.00
2019-04-30T11:31:08.782Z,3308.00
2019-04-30T11:32:08.749Z,3332.00
2019-04-30T11:33:08.792Z,3504.00
2019-04-30T11:34:08.532Z,3520.00
2019-04-30T11:35:08.605Z,3568.00
2019-04-30T11:36:09.611Z,3020.00
2019-04-30T11:37:08.501Z,3004.00
2019-04-30T11:38:08.559Z,3188.00
2019-04-30T11:39:08.637Z,3608.00
2019-04-30T11:40:08.457Z,3640.00
2019-04-30T11:41:08.715Z,3772.00
2019-04-30T11:42:08.435Z,3416.00
2019-04-30T11:43:08.432Z,2232.00
2019-04-30T11:44:09.301Z,3792.00
2019-04-30T11:45:08.688Z,3592.00
2019-04-30T11:46:08.716Z,3524.00
2019-04-30T11:47:09.490Z,3616.00
2019-04-30T11:48:09.075Z,3724.00
2019-04-30T11:49:09.675Z,3764.00
2019-04-30T11:50:08.367Z,3720.00
2019-04-30T11:51:09.482Z,3784.00
2019-04-30T11:52:08.346Z,3836.00
2019-04-30T11:53:24.102Z,3784.00
2019-04-30T11:54:09.314Z,3840.00
2019-04-30T11:55:09.662Z,3904.00
2019-04-30T11:56:08.308Z,3892.00
2019-04-30T11:57:08.876Z,2116.00
2019-04-30T11:58:20.978Z,2216.00
2019-04-30T11:59:08.739Z,3664.00
2019-04-30T12:00:08.528Z,3832.00
2019-04-30T12:01:09.360Z,3840.00
2019-04-30T12:02:08.216Z,3864.00
2019-04-30T12:03:09.037Z,3912.00
2019-04-30T12:04:09.365Z,3936.00
2019-04-30T12:05:08.174Z,3940.00
2019-04-30T12:06:08.623Z,3944.00
2019-04-30T12:07:08.158Z,3928.00
2019-04-30T12:08:09.535Z,3972.00
2019-04-30T12:09:09.189Z,3984.00
2019-04-30T12:10:09.498Z,3988.00
2019-04-30T12:11:08.116Z,4040.00
2019-04-30T12:12:09.175Z,4072.00
2019-04-30T12:13:09.596Z,4096.00
2019-04-30T12:14:08.078Z,4092.00
2019-04-30T12:15:09.336Z,4092.00
2019-04-30T12:16:08.680Z,4144.00
2019-04-30T12:17:08.055Z,4192.00
2019-04-30T12:18:08.053Z,4192.00
2019-04-30T12:19:09.022Z,4224.00
2019-04-30T12:20:08.605Z,4308.00
2019-04-30T12:21:07.985Z,4312.00
2019-04-30T12:22:07.996Z,4376.00
2019-04-30T12:23:11.479Z,4416.00
2019-04-30T12:24:07.998Z,4412.00
2019-04-30T12:25:09.852Z,4456.00
2019-04-30T12:26:09.210Z,4596.00
2019-04-30T12:27:07.922Z,4636.00